Data for 12/05/2012

Time Sea-Level Adjusted Pressure Absolute Pressure Temperature Relative Humidity Dew Point   
(mb) (inHg) (mb) (inHg) (C) (F) (%) (C) (F)
00:05 1016 30 845 24.95 6.9 44.4 58 -0.7 30.7
00:10 1015 29.97 845 24.95 6.7 44.1 59 -0.8 30.6
00:15 1015 29.97 845 24.95 6.7 44.1 59 -0.7 30.8
00:20 1015 29.97 845 24.95 6.7 44 59 -0.7 30.7
00:25 1015 29.97 845 24.95 6.8 44.2 59 -0.7 30.7
00:30 1015 29.97 845 24.95 6.8 44.2 59 -0.7 30.8
00:35 1015 29.97 845 24.95 6.8 44.3 59 -0.6 31
00:40 1016 30 845 24.95 6.7 44.1 58 -0.9 30.4
00:45 1015 29.97 845 24.95 7.5 45.4 54 -1.2 29.8
00:50 1016 30 845 24.95 7.6 45.8 55 -0.7 30.7
00:55 1015 29.97 845 24.95 7.7 45.9 55 -0.7 30.7
01:00 1015 29.97 845 24.95 7.6 45.8 54 -1 30.3
01:05 1015 29.97 845 24.95 7.8 46.1 55 -0.6 31
01:10 1016 30 845 24.95 7.7 45.8 54 -1 30.2
01:15 1015 29.97 845 24.95 7.9 46.3 54 -0.8 30.6
01:20 1015 29.97 845 24.95 8 46.3 55 -0.4 31.3
01:25 1015 29.97 845 24.95 7.5 45.4 57 -0.5 31.1
01:30 1015 29.97 845 24.95 7.1 44.8 58 -0.5 31.2
01:35 1015 29.97 845 24.95 7 44.6 59 -0.5 31.1
01:40 1015 29.97 844 24.92 6.9 44.4 60 -0.4 31.3
01:45 1015 29.97 844 24.92 6.8 44.3 59 -0.5 31.1
01:50 1015 29.97 844 24.92 6.9 44.4 60 -0.4 31.3
01:55 1015 29.97 844 24.92 6.9 44.4 59 -0.5 31.1
02:00 1015 29.97 844 24.92 7 44.5 59 -0.5 31.1
02:05 1015 29.97 844 24.92 7 44.6 58 -0.6 30.9
02:10 1015 29.97 844 24.92 7.2 45 57 -0.6 30.9
02:15 1015 29.97 844 24.92 7.3 45.2 58 -0.4 31.3
02:20 1015 29.97 844 24.92 7.1 44.7 61 0 32
02:25 1015 29.97 844 24.92 6.5 43.7 63 -0.1 31.9
02:30 1015 29.97 844 24.92 6.3 43.4 63 -0.2 31.6
02:35 1015 29.97 844 24.92 6.3 43.3 63 -0.3 31.5
02:40 1015 29.97 844 24.92 6.4 43.5 63 -0.2 31.6
02:45 1015 29.97 844 24.92 6.2 43.2 65 0.1 32.2
02:50 1015 29.97 844 24.92 6.1 43 65 -0 31.9
02:55 1015 29.97 844 24.92 6.2 43.2 64 -0 32
03:00 1015 29.97 844 24.92 6.3 43.4 64 -0.1 31.9
03:05 1015 29.97 844 24.92 6.5 43.6 64 0.2 32.4
03:10 1015 29.97 844 24.92 6.2 43.1 68 0.7 33.3
03:15 1014 29.94 844 24.92 5.9 42.6 70 0.8 33.4
03:20 1014 29.94 844 24.92 5.8 42.4 70 0.8 33.5
03:25 1014 29.94 844 24.92 5.8 42.4 69 0.6 33
03:30 1014 29.94 844 24.92 5.9 42.6 68 0.4 32.8
03:35 1014 29.94 844 24.92 6.1 43 67 0.5 32.9
03:40 1014 29.94 844 24.92 6.1 43 67 0.5 32.9
03:45 1014 29.94 843 24.89 6.2 43.1 67 0.5 32.9
03:50 1014 29.94 843 24.89 6.2 43.2 66 0.4 32.7
03:55 1014 29.94 843 24.89 6.3 43.3 66 0.4 32.8
04:00 1014 29.94 843 24.89 6.2 43.1 67 0.4 32.7
04:05 1014 29.94 843 24.89 6.1 43 67 0.5 32.9
04:10 1014 29.94 843 24.89 6.2 43.2 65 0.2 32.4
04:15 1014 29.94 843 24.89 6.2 43.1 67 0.5 32.8
04:20 1014 29.94 843 24.89 5.9 42.7 66 0 32.1
04:25 1014 29.94 843 24.89 6.1 42.9 65 -0.1 31.9
04:30 1014 29.94 843 24.89 6 42.8 65 0 32
04:35 1014 29.94 843 24.89 5.9 42.6 65 -0.1 31.8
04:40 1014 29.94 843 24.89 5.9 42.7 65 -0.1 31.8
04:45 1013 29.91 843 24.89 5.9 42.7 66 0 32
04:50 1013 29.91 842 24.86 6.1 42.9 63 -0.4 31.3
04:55 1013 29.91 842 24.86 6.2 43.1 65 0.1 32.2
05:00 1013 29.91 842 24.86 6 42.8 64 -0.3 31.5
05:05 1013 29.91 842 24.86 6.1 42.9 64 -0.2 31.7
05:10 1013 29.91 842 24.86 5.8 42.5 66 -0.1 31.8
05:15 1013 29.91 842 24.86 5.8 42.5 65 -0.2 31.7
05:20 1013 29.91 842 24.86 5.7 42.3 66 -0 32
05:25 1013 29.91 842 24.86 5.6 42 66 -0.3 31.5
05:30 1013 29.91 842 24.86 5.7 42.2 66 -0.1 31.8
05:35 1013 29.91 842 24.86 5.4 41.7 68 -0.1 31.9
05:40 1013 29.91 842 24.86 5.3 41.6 67 -0.4 31.3
05:45 1013 29.91 842 24.86 5.3 41.6 67 -0.3 31.4
05:50 1013 29.91 842 24.86 5.2 41.4 69 0.1 32.1
05:55 1013 29.91 842 24.86 4.8 40.7 70 -0.2 31.6
06:00 1013 29.91 842 24.86 5 41 68 -0.3 31.5
06:05 1013 29.91 842 24.86 5.4 41.6 67 -0.3 31.4
06:10 1013 29.91 842 24.86 5.5 42 65 -0.5 31.2
06:15 1013 29.91 842 24.86 5.8 42.4 63 -0.7 30.7
06:20 1013 29.91 842 24.86 6 42.8 64 -0.3 31.5
06:25 1013 29.91 842 24.86 5.8 42.4 64 -0.5 31.1
06:30 1013 29.91 842 24.86 6 42.7 63 -0.4 31.2
06:35 1013 29.91 842 24.86 5.7 42.2 64 -0.6 30.9
06:40 1013 29.91 842 24.86 5.8 42.5 63 -0.6 30.9
06:45 1013 29.91 842 24.86 6.1 43 61 -0.8 30.5
06:50 1013 29.91 842 24.86 6.3 43.4 61 -0.7 30.7
06:55 1012 29.88 842 24.86 6.3 43.3 61 -0.7 30.8
07:00 1012 29.88 841 24.83 6.4 43.4 62 -0.4 31.2
07:05 1012 29.88 841 24.83 6.2 43.2 61 -0.7 30.8
07:10 1012 29.88 841 24.83 6.2 43.2 60 -0.8 30.5
07:15 1012 29.88 841 24.83 6.4 43.5 59 -1.1 30.1
07:20 1012 29.88 841 24.83 6.9 44.3 57 -1 30.2
07:25 1012 29.88 841 24.83 7.8 46 52 -1.4 29.5
07:30 1012 29.88 842 24.86 8.5 47.3 49 -1.6 29.1
07:35 1012 29.88 842 24.86 9.4 48.8 46 -1.8 28.8
07:40 1012 29.88 842 24.86 9.9 49.8 45 -1.5 29.3
07:45 1012 29.88 842 24.86 9.9 49.9 46 -1.2 29.8
07:50 1012 29.88 842 24.86 9.7 49.5 46 -1.2 29.9
07:55 1012 29.88 842 24.86 9.5 49.1 46 -1.5 29.3
08:00 1012 29.88 842 24.86 9.6 49.3 46 -1.5 29.3
08:05 1012 29.88 842 24.86 9.7 49.4 46 -1.3 29.6
08:10 1012 29.88 841 24.83 9.7 49.5 44 -1.8 28.7
08:15 1012 29.88 841 24.83 10 50 45 -1.2 29.9
08:20 1012 29.88 841 24.83 9.9 49.8 45 -1.6 29.2
08:25 1012 29.88 841 24.83 10.1 50.1 45 -1.3 29.6
08:30 1012 29.88 841 24.83 9.9 49.8 46 -1.1 30
08:35 1012 29.88 841 24.83 9.8 49.7 46 -1.2 29.9
08:40 1012 29.88 841 24.83 9.7 49.4 47 -1.1 30.1
08:45 1012 29.88 841 24.83 9.7 49.4 47 -1.1 30.1
08:50 1012 29.88 841 24.83 9.6 49.3 48 -0.9 30.4
08:55 1012 29.88 841 24.83 9.6 49.3 48 -1 30.3
09:00 1012 29.88 841 24.83 9.7 49.4 49 -0.6 30.9
09:05 1012 29.88 841 24.83 9.4 48.9 50 -0.6 31
09:10 1012 29.88 841 24.83 9.3 48.7 49 -0.7 30.7
09:15 1012 29.88 841 24.83 9.2 48.6 50 -0.7 30.7
09:20 1012 29.88 841 24.83 9.1 48.3 50 -0.8 30.5
09:25 1012 29.88 841 24.83 9.2 48.6 49 -0.9 30.4
09:30 1012 29.88 841 24.83 9.3 48.7 52 -0.1 31.8
09:35 1012 29.88 841 24.83 9.4 49 50 -0.4 31.2
09:40 1012 29.88 841 24.83 9.3 48.8 50 -0.7 30.8
09:45 1012 29.88 841 24.83 9.2 48.6 50 -0.6 31
09:50 1012 29.88 841 24.83 9.1 48.3 51 -0.6 30.9
09:55 1012 29.88 841 24.83 9.1 48.3 51 -0.4 31.3
10:00 1012 29.88 841 24.83 9 48.1 52 -0.3 31.4
10:05 1012 29.88 841 24.83 8.9 48.1 52 -0.2 31.6
10:10 1012 29.88 841 24.83 8.9 48.1 53 -0.2 31.6
10:15 1012 29.88 841 24.83 9.1 48.3 53 -0 32
10:20 1012 29.88 841 24.83 9.1 48.4 53 0.2 32.3
10:25 1012 29.88 841 24.83 9.2 48.5 55 0.7 33.3
10:30 1012 29.88 841 24.83 9.3 48.7 52 0 32
10:35 1012 29.88 841 24.83 9.4 48.9 55 0.8 33.4
10:40 1012 29.88 841 24.83 9.3 48.7 55 0.8 33.4
10:45 1012 29.88 841 24.83 9.2 48.5 54 0.5 32.9
10:50 1012 29.88 841 24.83 9.2 48.5 53 0.2 32.3
10:55 1012 29.88 841 24.83 9.3 48.8 52 -0.1 31.9
11:00 1012 29.88 841 24.83 9.7 49.4 50 -0.1 31.8
11:05 1012 29.88 841 24.83 9.8 49.7 50 -0.1 31.8
11:10 1012 29.88 841 24.83 9.9 49.8 50 0.1 32.2
11:15 1012 29.88 841 24.83 9.8 49.7 51 0.2 32.3
11:20 1012 29.88 841 24.83 9.7 49.5 51 0.1 32.2
11:25 1012 29.88 841 24.83 9.8 49.7 50 0.1 32.2
11:30 1012 29.88 841 24.83 9.9 49.8 52 0.6 33.1
11:35 1012 29.88 841 24.83 9.6 49.4 54 0.8 33.4
11:40 1012 29.88 841 24.83 9.5 49.1 53 0.5 33
11:45 1012 29.88 841 24.83 9.6 49.3 52 0.3 32.5
11:50 1012 29.88 841 24.83 9.7 49.4 52 0.4 32.8
11:55 1012 29.88 841 24.83 9.7 49.5 51 0 32
12:00 1012 29.88 841 24.83 9.9 49.7 51 0.2 32.4
12:05 1012 29.88 841 24.83 9.9 49.8 50 0.1 32.2
12:10 1012 29.88 841 24.83 10 49.9 49 -0.1 31.8
12:15 1012 29.88 841 24.83 10.1 50.1 49 0 32
12:20 1012 29.88 841 24.83 10.1 50.1 49 -0.1 31.8
12:25 1012 29.88 841 24.83 10.1 50.2 48 -0.3 31.4
12:30 1012 29.88 841 24.83 10.3 50.5 48 -0.2 31.6
12:35 1012 29.88 841 24.83 10.4 50.8 47 -0.4 31.3
12:40 1012 29.88 841 24.83 10.6 51 47 -0.3 31.5
12:45 1012 29.88 841 24.83 10.6 51 48 0.1 32.1
12:50 1012 29.88 841 24.83 10.7 51.2 46 -0.5 31.2
12:55 1012 29.88 841 24.83 10.7 51.3 46 -0.2 31.6
13:00 1012 29.88 841 24.83 10.9 51.6 45 -0.4 31.3
13:05 1012 29.88 841 24.83 11.3 52.3 42 -1.1 30
13:10 1012 29.88 841 24.83 11.9 53.5 39 -1.7 28.9
13:15 1012 29.88 841 24.83 12.3 54.1 37 -2 28.4
13:20 1012 29.88 841 24.83 12.1 53.8 39 -1.5 29.3
13:25 1012 29.88 841 24.83 12.2 54 37 -2.1 28.2
13:30 1011 29.85 841 24.83 12.6 54.7 37 -1.7 28.9
13:35 1011 29.85 841 24.83 12.9 55.2 33 -2.9 26.7
13:40 1011 29.85 841 24.83 13 55.4 34 -2.3 27.9
13:45 1011 29.85 841 24.83 12.9 55.1 34 -2.6 27.3
13:50 1011 29.85 841 24.83 13 55.3 33 -3 26.5
13:55 1011 29.85 840 24.81 12.8 55.1 33 -3.1 26.3
14:00 1011 29.85 840 24.81 12.7 54.9 33 -3.1 26.5
14:05 1011 29.85 840 24.81 12.8 55 33 -3.2 26.3
14:10 1011 29.85 840 24.81 12.8 55 32 -3.5 25.7
14:15 1011 29.85 840 24.81 12.8 55.1 31 -3.9 25
14:20 1011 29.85 840 24.81 12.4 54.4 32 -3.8 25.1
14:25 1011 29.85 840 24.81 12.3 54.2 33 -3.4 25.8
14:30 1011 29.85 841 24.83 12.1 53.8 36 -2.4 27.7
14:35 1011 29.85 841 24.83 11.7 53.1 38 -2 28.3
14:40 1011 29.85 841 24.83 11.5 52.6 39 -2 28.3
14:45 1011 29.85 841 24.83 11.3 52.4 40 -1.7 28.9
14:50 1011 29.85 841 24.83 11.3 52.3 41 -1.5 29.3
14:55 1011 29.85 841 24.83 11 51.9 42 -1.3 29.7
15:00 1012 29.88 841 24.83 10.9 51.6 41 -1.7 28.9
15:05 1012 29.88 841 24.83 10.8 51.5 42 -1.5 29.3
15:10 1012 29.88 841 24.83 10.4 50.7 52 1 33.9
15:15 1012 29.88 842 24.86 8.7 47.7 59 1.3 34.3
15:20 1012 29.88 842 24.86 7.6 45.7 63 1.1 34
15:25 1013 29.91 842 24.86 7.1 44.8 67 1.3 34.4
15:30 1013 29.91 842 24.86 6.7 44 69 1.4 34.5
15:35 1013 29.91 842 24.86 6.6 43.8 69 1.4 34.5
15:40 1013 29.91 842 24.86 6.5 43.7 70 1.5 34.7
15:45 1013 29.91 842 24.86 6.4 43.5 71 1.6 34.9
15:50 1013 29.91 842 24.86 6.4 43.5 73 1.9 35.3
15:55 1013 29.91 842 24.86 6.3 43.4 73 1.8 35.2
16:00 1013 29.91 842 24.86 6.3 43.4 73 1.9 35.3
16:05 1013 29.91 842 24.86 6.3 43.3 71 1.4 34.6
16:10 1013 29.91 842 24.86 6.3 43.3 72 1.5 34.7
16:15 1013 29.91 842 24.86 6.4 43.5 71 1.5 34.7
16:20 1013 29.91 843 24.89 6.4 43.5 71 1.6 34.8
16:25 1014 29.94 843 24.89 6.4 43.5 71 1.5 34.8
16:30 1014 29.94 843 24.89 6.4 43.5 70 1.3 34.3
16:35 1014 29.94 843 24.89 6.5 43.6 69 1.2 34.2
16:40 1014 29.94 843 24.89 6.5 43.6 70 1.4 34.6
16:45 1014 29.94 843 24.89 6.3 43.3 69 0.9 33.6
16:50 1014 29.94 843 24.89 6.4 43.5 69 1.2 34.1
16:55 1014 29.94 843 24.89 6.2 43.2 71 1.3 34.3
17:00 1014 29.94 843 24.89 6.1 43 71 1.2 34.2
17:05 1014 29.94 843 24.89 6.1 43 70 1.1 34.1
17:10 1014 29.94 843 24.89 6.1 42.9 71 1.1 34
17:15 1014 29.94 843 24.89 6 42.8 71 1.1 33.9
17:20 1014 29.94 843 24.89 6 42.7 70 1 33.8
17:25 1014 29.94 843 24.89 5.9 42.6 71 1 33.8
17:30 1014 29.94 843 24.89 5.9 42.6 68 0.4 32.8
17:35 1014 29.94 843 24.89 6.1 43 66 0.3 32.6
17:40 1014 29.94 843 24.89 6.4 43.5 63 -0.2 31.6
17:45 1014 29.94 843 24.89 6.7 44.1 61 -0.2 31.7
17:50 1014 29.94 843 24.89 6.8 44.3 62 0.1 32.2
17:55 1014 29.94 843 24.89 6.9 44.5 61 -0 31.9
18:00 1014 29.94 843 24.89 7.1 44.7 59 -0.5 31.1
18:05 1014 29.94 843 24.89 7.2 45 59 -0.3 31.4
18:10 1014 29.94 843 24.89 7.2 44.9 60 -0.1 31.9
18:15 1014 29.94 843 24.89 7.1 44.8 59 -0.4 31.2
18:20 1014 29.94 843 24.89 7.1 44.7 58 -0.5 31.1
18:25 1014 29.94 843 24.89 6.9 44.5 60 -0.3 31.5
18:30 1014 29.94 843 24.89 6.9 44.3 58 -0.8 30.6
18:35 1014 29.94 844 24.92 6.8 44.3 55 -1.6 29
18:40 1014 29.94 844 24.92 6.9 44.4 54 -1.7 29
18:45 1014 29.94 844 24.92 6.8 44.3 54 -1.7 28.9
18:50 1015 29.97 844 24.92 6.8 44.2 53 -2 28.3
18:55 1015 29.97 844 24.92 6.7 44 53 -2.2 28
19:00 1015 29.97 844 24.92 6.5 43.8 52 -2.5 27.4
19:05 1015 29.97 844 24.92 6.4 43.5 52 -2.8 26.9
19:10 1015 29.97 844 24.92 6.2 43.2 50 -3.4 25.8
19:15 1015 29.97 844 24.92 6.1 43 49 -3.7 25.4
19:20 1015 29.97 844 24.92 6 42.8 48 -4.2 24.5
19:25 1015 29.97 844 24.92 5.9 42.6 48 -4.4 24.1
19:30 1015 29.97 844 24.92 5.8 42.4 48 -4.5 23.9
19:35 1015 29.97 844 24.92 5.6 42.2 48 -4.6 23.7
19:40 1015 29.97 844 24.92 5.6 42 47 -4.9 23.2
19:45 1015 29.97 844 24.92 5.6 42 47 -4.9 23.1
19:50 1015 29.97 844 24.92 5.5 41.9 48 -4.7 23.6
19:55 1015 29.97 844 24.92 5.4 41.8 49 -4.3 24.2
20:00 1015 29.97 844 24.92 5.4 41.7 49 -4.4 24.2
20:05 1015 29.97 844 24.92 5.3 41.5 49 -4.6 23.8
20:10 1015 29.97 844 24.92 5.2 41.3 48 -5 23.1
20:15 1015 29.97 844 24.92 5.1 41.2 46 -5.5 22.1
20:20 1015 29.97 844 24.92 5 41 46 -5.6 21.9
20:25 1015 29.97 845 24.95 5 40.9 47 -5.5 22.2
20:30 1015 29.97 845 24.95 4.8 40.7 47 -5.6 21.8
20:35 1016 30 845 24.95 4.7 40.5 47 -5.5 22.1
20:40 1016 30 845 24.95 4.7 40.5 48 -5.3 22.5
20:45 1016 30 845 24.95 4.6 40.2 49 -5.2 22.6
20:50 1016 30 845 24.95 4.5 40 50 -5.1 22.8
20:55 1016 30 845 24.95 4.5 40 50 -5 22.9
21:00 1016 30 845 24.95 4.4 40 50 -5.2 22.7
21:05 1016 30 845 24.95 4.4 39.9 50 -5.2 22.7
21:10 1016 30 845 24.95 4.4 39.9 51 -4.9 23.1
21:15 1016 30 845 24.95 4.3 39.8 51 -4.8 23.3
21:20 1016 30 845 24.95 4.1 39.3 56 -4 24.8
21:25 1016 30 845 24.95 3.5 38.4 58 -3.9 25
21:30 1016 30 845 24.95 3.2 37.8 59 -3.9 25
21:35 1016 30 845 24.95 3.2 37.8 58 -4.2 24.4
21:40 1016 30 845 24.95 3.2 37.8 58 -4.1 24.6
21:45 1016 30 845 24.95 3.2 37.7 60 -3.9 24.9
21:50 1016 30 845 24.95 3.1 37.6 61 -3.7 25.3
21:55 1016 30 846 24.98 3 37.4 60 -3.9 24.9
22:00 1016 30 846 24.98 3 37.4 61 -3.9 25.1
22:05 1016 30 846 24.98 2.8 37 62 -3.7 25.3
22:10 1016 30 846 24.98 2.8 37 62 -3.8 25.2
22:15 1016 30 846 24.98 2.6 36.7 64 -3.5 25.7
22:20 1016 30 846 24.98 2.4 36.3 65 -3.4 25.8
22:25 1016 30 846 24.98 2.3 36.1 64 -3.8 25.2
22:30 1016 30 846 24.98 2.3 36.2 63 -3.9 25
22:35 1017 30.03 846 24.98 2.6 36.6 61 -4.1 24.6
22:40 1017 30.03 846 24.98 2.8 37 59 -4.4 24
22:45 1017 30.03 846 24.98 3 37.5 58 -4.5 23.9
22:50 1017 30.03 846 24.98 3.1 37.7 59 -4.1 24.7
22:55 1017 30.03 846 24.98 3.1 37.6 57 -4.6 23.7
23:00 1017 30.03 846 24.98 3.2 37.7 55 -5.1 22.9
23:05 1017 30.03 846 24.98 3.3 37.9 54 -5.2 22.6
23:10 1017 30.03 846 24.98 3.3 37.9 56 -4.7 23.6
23:15 1017 30.03 846 24.98 3.1 37.5 58 -4.3 24.2
23:20 1017 30.03 846 24.98 2.8 37.1 57 -4.8 23.3
23:25 1017 30.03 846 24.98 2.7 36.9 58 -4.8 23.4
23:30 1017 30.03 846 24.98 2.7 36.9 59 -4.5 24
23:35 1017 30.03 846 24.98 2.5 36.5 60 -4.5 23.9
23:40 1017 30.03 846 24.98 2.3 36.1 61 -4.5 23.9
23:45 1017 30.03 846 24.98 2 35.7 61 -4.7 23.6
23:50 1017 30.03 846 24.98 1.8 35.3 61 -4.9 23.2
23:55 1017 30.03 846 24.98 1.8 35.2 62 -4.7 23.5
24:00 1017 30.03 846 24.98 1.6 34.9 62 -4.8 23.3